Time;durP1;ratioP1;P1;durP2;ratioP2;P2;SDS_P1;SDS_P2;PMS_P1;PMS_P2;Temp;Humidity;BMP_temperature;BMP_pressure;BME280_temperature;BME280_humidity;BME280_pressure;Samples;Min_cycle;Max_cycle;Signal;HPM_P1;HPM_P2
2023/04/02 00:00:42;;;;;;;74.15;14.07;;;9.70;99.90;;;;;;5019219;28;20287;-86
2023/04/02 00:04:09;;;;;;;;;;;;;;;;;;;;;
2023/04/02 00:07:39;;;;;;;76.43;16.25;;;9.70;99.90;;;;;;5001278;28;20288;-86
2023/04/02 00:10:40;;;;;;;74.93;13.90;;;9.70;99.90;;;;;;4943632;29;20234;-86
2023/04/02 00:13:27;;;;;;;74.75;14.63;;;9.70;99.90;;;;;;5019271;28;20276;-86
2023/04/02 00:16:27;;;;;;;;;;;;;;;;;;;;;
2023/04/02 00:19:07;;;;;;;74.88;14.30;;;9.80;99.90;;;;;;5023458;28;20229;-84
2023/04/02 00:22:07;;;;;;;;;;;;;;;;;;;;;
2023/04/02 00:24:50;;;;;;;;;;;;;;;;;;;;;
2023/04/02 00:27:31;;;;;;;76.72;13.63;;;9.80;99.90;;;;;;5021853;28;20229;-84
2023/04/02 00:30:23;;;;;;;76.13;13.80;;;9.90;99.90;;;;;;5023239;28;20169;-86
2023/04/02 00:47:52;;;;;;;76.57;13.57;;;10.20;99.90;;;;;;4883779;29;20189;-86
2023/04/02 00:54:30;;;;;;;75.07;11.95;;;10.10;99.90;;;;;;4785155;29;20239;-85
2023/04/02 01:05:29;;;;;;;74.90;12.10;;;10.10;99.90;;;;;;4942486;28;20221;-86
2023/04/02 01:08:54;;;;;;;69.53;8.73;;;10.10;99.90;;;;;;4962028;29;20187;-86
2023/04/02 01:11:41;;;;;;;69.72;9.18;;;10.00;99.90;;;;;;4951792;28;20736;-86
2023/04/02 01:18:25;;;;;;;69.40;10.50;;;9.60;99.90;;;;;;5000471;28;20605;-85
2023/04/02 01:21:51;;;;;;;69.63;9.65;;;9.60;99.90;;;;;;5022249;28;20169;-86
2023/04/02 01:24:25;;;;;;;68.53;9.05;;;9.50;99.90;;;;;;4967730;28;20256;-85
2023/04/02 01:35:02;;;;;;;69.80;9.85;;;9.30;99.90;;;;;;4942247;29;20200;-85
2023/04/02 01:37:43;;;;;;;70.15;10.68;;;9.30;99.90;;;;;;4936702;29;20708;-84
2023/04/02 01:40:51;;;;;;;69.70;9.43;;;9.20;99.90;;;;;;4942658;29;20188;-86
2023/04/02 01:43:42;;;;;;;;;;;;;;;;;;;;;
2023/04/02 01:47:07;;;;;;;73.05;12.20;;;9.10;99.90;;;;;;4971049;28;20266;-84
2023/04/02 01:50:00;;;;;;;69.35;9.32;;;9.10;99.90;;;;;;4962986;28;20185;-85
2023/04/02 01:52:41;;;;;;;70.70;11.70;;;9.10;99.90;;;;;;4981696;28;20272;-86
2023/04/02 01:55:39;;;;;;;71.78;11.85;;;9.00;99.90;;;;;;5020782;28;20182;-86
2023/04/02 01:58:29;;;;;;;70.75;11.45;;;8.90;99.90;;;;;;5022426;28;20260;-85
2023/04/02 02:01:22;;;;;;;70.07;11.15;;;8.90;99.90;;;;;;5021380;28;20269;-86
2023/04/02 02:03:51;;;;;;;69.80;9.70;;;8.80;99.90;;;;;;5021331;28;20704;-85
2023/04/02 02:06:29;;;;;;;72.88;11.65;;;8.80;99.90;;;;;;5022742;28;20177;-86
2023/04/02 02:09:13;;;;;;;69.93;10.18;;;8.80;99.90;;;;;;5020598;28;20186;-86
2023/04/02 02:11:53;;;;;;;70.20;9.52;;;8.90;99.90;;;;;;5020639;28;20169;-84
2023/04/02 02:14:24;;;;;;;72.93;18.42;;;8.80;99.90;;;;;;5022620;28;20716;-85
2023/04/02 02:17:01;;;;;;;68.20;9.60;;;8.70;99.90;;;;;;5022566;28;20178;-85
2023/04/02 02:20:10;;;;;;;70.75;10.60;;;8.70;99.90;;;;;;5020935;28;20169;-86
2023/04/02 02:22:58;;;;;;;69.55;9.90;;;8.70;99.90;;;;;;5022336;28;20181;-84
2023/04/02 02:25:34;;;;;;;70.00;10.63;;;8.70;99.90;;;;;;5021066;28;20257;-86
2023/04/02 02:28:35;;;;;;;67.88;8.88;;;8.70;99.90;;;;;;5021352;28;20154;-85
2023/04/02 02:31:47;;;;;;;70.05;8.90;;;8.70;99.90;;;;;;5008736;28;20174;-85
2023/04/02 02:34:44;;;;;;;69.13;7.78;;;8.70;99.90;;;;;;4995848;28;20295;-86
2023/04/02 02:37:20;;;;;;;67.15;6.90;;;8.70;99.90;;;;;;5023181;28;20166;-86
2023/04/02 02:39:53;;;;;;;68.13;8.43;;;8.70;99.90;;;;;;5022181;28;20168;-86
2023/04/02 02:42:27;;;;;;;68.18;7.95;;;8.80;99.90;;;;;;5021794;28;20173;-86
2023/04/02 02:45:02;;;;;;;72.22;8.68;;;8.70;99.90;;;;;;5022454;28;20538;-85
2023/04/02 02:47:55;;;;;;;67.60;7.80;;;8.70;99.90;;;;;;5022677;28;20149;-86
2023/04/02 02:50:34;;;;;;;68.32;8.30;;;8.70;99.90;;;;;;5015919;28;20228;-86
2023/04/02 02:53:07;;;;;;;67.97;7.85;;;8.60;99.90;;;;;;5022268;28;20209;-86
2023/04/02 02:55:40;;;;;;;67.95;8.40;;;8.60;99.90;;;;;;5020985;28;20172;-86
2023/04/02 02:58:14;;;;;;;68.85;7.90;;;8.50;99.90;;;;;;5022615;28;20165;-86
2023/04/02 03:01:10;;;;;;;67.10;7.18;;;8.50;99.90;;;;;;5020372;28;20192;-86
2023/04/02 03:03:46;;;;;;;67.53;7.28;;;8.50;99.90;;;;;;5021851;28;20776;-85
2023/04/02 03:06:23;;;;;;;67.97;7.50;;;8.50;99.90;;;;;;5022146;28;20689;-86
2023/04/02 03:09:09;;;;;;;67.47;7.25;;;8.40;99.90;;;;;;5020398;28;20166;-86
2023/04/02 03:12:22;;;;;;;67.10;5.95;;;8.50;99.90;;;;;;5021651;28;20182;-86
2023/04/02 03:15:22;;;;;;;;;;;;;;;;;;;;;
2023/04/02 03:18:19;;;;;;;69.80;7.40;;;8.30;99.90;;;;;;5022522;28;20233;-86
2023/04/02 03:20:58;;;;;;;67.10;6.00;;;8.30;99.90;;;;;;5020862;28;20173;-86
2023/04/02 03:23:40;;;;;;;67.72;7.25;;;8.40;99.90;;;;;;5021548;28;20695;-86
2023/04/02 03:27:10;;;;;;;66.18;6.72;;;8.30;99.90;;;;;;5020471;28;20530;-86
2023/04/02 03:29:44;;;;;;;67.05;6.15;;;8.30;99.90;;;;;;5012737;28;20181;-86
2023/04/02 03:32:19;;;;;;;66.85;5.93;;;8.20;99.90;;;;;;5022038;28;20147;-86
2023/04/02 03:35:07;;;;;;;67.57;6.60;;;8.20;99.90;;;;;;5020499;28;20196;-86
2023/04/02 03:37:49;;;;;;;66.97;6.40;;;8.20;99.90;;;;;;5021384;28;20241;-86
2023/04/02 03:40:26;;;;;;;70.00;6.70;;;8.10;99.90;;;;;;5019747;28;20506;-86
2023/04/02 03:43:31;;;;;;;;;;;;;;;;;;;;;
2023/04/02 03:46:35;;;;;;;67.65;6.95;;;8.10;99.90;;;;;;5020700;28;20244;-86
2023/04/02 03:49:27;;;;;;;68.65;6.20;;;8.00;99.90;;;;;;5020043;28;20181;-86
2023/04/02 03:52:12;;;;;;;67.97;6.65;;;8.10;99.90;;;;;;5020783;28;20168;-86
2023/04/02 03:54:42;;;;;;;68.20;7.15;;;8.10;99.90;;;;;;5019619;28;20209;-86
2023/04/02 03:57:35;;;;;;;69.00;8.15;;;8.10;99.90;;;;;;5018800;28;20181;-87
2023/04/02 04:00:24;;;;;;;67.63;6.65;;;7.90;99.90;;;;;;5019122;28;20193;-86
2023/04/02 04:02:56;;;;;;;68.38;7.47;;;7.90;99.90;;;;;;5018959;28;20197;-86
2023/04/02 04:05:38;;;;;;;67.88;8.30;;;8.00;99.90;;;;;;5018744;28;20229;-86
2023/04/02 04:08:07;;;;;;;68.85;9.30;;;7.90;99.90;;;;;;5021344;28;20229;-87
2023/04/02 04:10:34;;;;;;;70.13;10.27;;;7.90;99.90;;;;;;5020033;28;20176;-86
2023/04/02 04:13:10;;;;;;;71.30;10.52;;;7.80;99.90;;;;;;5019037;28;20212;-87
2023/04/02 04:15:38;;;;;;;69.82;10.38;;;7.80;99.90;;;;;;5018473;28;20229;-87
2023/04/02 04:18:39;;;;;;;69.75;9.43;;;7.80;99.90;;;;;;5020003;28;20173;-87
2023/04/02 04:21:14;;;;;;;69.43;9.60;;;7.80;99.90;;;;;;5020630;28;20181;-86
2023/04/02 04:23:48;;;;;;;68.97;8.30;;;7.90;99.90;;;;;;5019894;28;20193;-87
2023/04/02 04:26:23;;;;;;;68.35;8.90;;;7.80;99.90;;;;;;5017870;28;20176;-87
2023/04/02 04:29:11;;;;;;;68.43;8.50;;;7.80;99.90;;;;;;5016793;28;20644;-87
2023/04/02 04:31:45;;;;;;;70.28;8.27;;;7.80;99.90;;;;;;5018666;28;20163;-87
2023/04/02 04:34:45;;;;;;;69.68;8.73;;;7.90;99.90;;;;;;5018392;28;20549;-87
2023/04/02 04:37:27;;;;;;;70.00;8.88;;;7.80;99.90;;;;;;5018535;28;20150;-87
2023/04/02 04:40:10;;;;;;;70.15;9.48;;;7.80;99.90;;;;;;5016898;28;20230;-87
2023/04/02 04:42:44;;;;;;;69.30;9.75;;;7.70;99.90;;;;;;5016675;28;20219;-87
2023/04/02 04:45:35;;;;;;;69.90;10.10;;;7.70;99.90;;;;;;5017219;28;20194;-87
2023/04/02 04:48:17;;;;;;;72.10;9.07;;;7.60;99.90;;;;;;5010102;28;20194;-87
2023/04/02 04:50:52;;;;;;;69.53;9.43;;;7.70;99.90;;;;;;5017910;28;20602;-86
2023/04/02 04:53:48;;;;;;;68.75;7.85;;;7.60;99.90;;;;;;5024758;23;20629;-85
2023/04/02 04:56:53;;;;;;;68.90;8.30;;;7.60;99.90;;;;;;5014163;28;20200;-85
2023/04/02 04:59:49;;;;;;;70.28;9.50;;;7.60;99.90;;;;;;5000378;28;20177;-86
2023/04/02 05:02:41;;;;;;;;;;;;;;;;;;;;;
2023/04/02 05:06:01;;;;;;;69.47;8.65;;;7.60;99.90;;;;;;5017761;28;20277;-85
2023/04/02 05:09:11;;;;;;;69.47;9.93;;;7.50;99.90;;;;;;5012955;28;20208;-86
2023/04/02 05:12:01;;;;;;;71.40;10.88;;;7.50;99.90;;;;;;5017593;28;20170;-86
2023/04/02 05:14:47;;;;;;;69.22;9.10;;;7.40;99.90;;;;;;5015310;28;20198;-85
2023/04/02 05:17:54;;;;;;;69.60;8.63;;;7.30;99.90;;;;;;5017206;28;20146;-85
2023/04/02 05:20:44;;;;;;;68.43;8.90;;;7.40;99.90;;;;;;5001643;28;20177;-87
2023/04/02 05:23:13;;;;;;;67.93;6.90;;;7.50;99.90;;;;;;5017291;28;20634;-87
2023/04/02 05:26:33;;;;;;;69.22;7.57;;;7.40;99.90;;;;;;5016442;28;20672;-86
2023/04/02 05:29:08;;;;;;;69.00;7.05;;;7.30;99.90;;;;;;4984791;28;20201;-86
2023/04/02 05:31:49;;;;;;;68.95;7.00;;;7.40;99.90;;;;;;5019022;28;20169;-86
2023/04/02 05:34:30;;;;;;;67.55;7.15;;;7.40;99.90;;;;;;5017371;28;20190;-86
2023/04/02 05:37:02;;;;;;;69.13;8.23;;;7.40;99.90;;;;;;5019581;28;20216;-86
2023/04/02 05:39:31;;;;;;;68.22;7.07;;;7.40;99.90;;;;;;5019562;28;20154;-86
2023/04/02 05:42:04;;;;;;;69.38;7.30;;;7.40;99.90;;;;;;5019770;28;20171;-86
2023/04/02 05:44:37;;;;;;;70.47;7.57;;;7.40;99.90;;;;;;5021381;28;20297;-86
2023/04/02 05:47:26;;;;;;;68.72;7.40;;;7.40;99.90;;;;;;5021063;28;20208;-86
2023/04/02 05:50:04;;;;;;;68.00;7.32;;;7.40;99.90;;;;;;5021188;28;20170;-86
2023/04/02 05:52:36;;;;;;;68.63;7.22;;;7.40;99.90;;;;;;5022055;28;20200;-86
2023/04/02 05:55:42;;;;;;;68.53;7.05;;;7.40;99.90;;;;;;5022577;28;20661;-86
2023/04/02 05:58:26;;;;;;;71.22;8.30;;;7.40;99.90;;;;;;5080924;23;20234;-86
2023/04/02 06:01:24;;;;;;;70.30;8.23;;;7.40;99.90;;;;;;5022740;28;20139;-86
2023/04/02 06:04:02;;;;;;;73.45;7.43;;;7.40;99.90;;;;;;5023073;28;20177;-86
2023/04/02 06:06:54;;;;;;;68.75;7.72;;;7.30;99.90;;;;;;5022285;28;20157;-86
2023/04/02 06:09:26;;;;;;;71.45;8.23;;;7.30;99.90;;;;;;4985204;28;20198;-86
2023/04/02 06:12:14;;;;;;;70.43;8.75;;;7.40;99.90;;;;;;5022032;28;20142;-86
2023/04/02 06:14:40;;;;;;;70.97;9.07;;;7.40;99.90;;;;;;5022529;28;20192;-86
2023/04/02 06:17:05;;;;;;;68.30;7.97;;;7.30;99.90;;;;;;5019995;28;20637;-86
2023/04/02 06:19:37;;;;;;;68.63;7.70;;;7.20;99.90;;;;;;5019128;28;20261;-87
2023/04/02 06:22:21;;;;;;;69.13;7.63;;;7.20;99.90;;;;;;5019084;28;20174;-87
2023/04/02 06:24:57;;;;;;;70.50;8.32;;;7.20;99.90;;;;;;5020185;28;20251;-87
2023/04/02 06:27:31;;;;;;;70.20;8.45;;;7.20;99.90;;;;;;5022003;28;20146;-87
2023/04/02 06:30:04;;;;;;;70.43;8.77;;;7.20;99.90;;;;;;5020042;28;20173;-87
2023/04/02 06:32:33;;;;;;;70.18;9.07;;;7.10;99.90;;;;;;5020742;28;20146;-88
2023/04/02 06:34:59;;;;;;;71.38;8.45;;;7.00;99.90;;;;;;5020561;28;20248;-87
2023/04/02 06:37:39;;;;;;;69.87;8.80;;;7.10;99.90;;;;;;5019075;28;20170;-87
2023/04/02 06:40:32;;;;;;;69.43;8.70;;;7.10;99.90;;;;;;5020861;28;20147;-88
2023/04/02 06:43:11;;;;;;;73.15;9.98;;;7.00;99.90;;;;;;5019695;28;20194;-88
2023/04/02 06:45:44;;;;;;;71.70;10.48;;;7.10;99.90;;;;;;5019244;28;20193;-88
2023/04/02 06:48:16;;;;;;;70.95;8.82;;;7.10;99.90;;;;;;5020857;28;20272;-87
2023/04/02 06:51:08;;;;;;;71.28;9.05;;;7.10;99.90;;;;;;5019879;28;20176;-87
2023/04/02 06:53:52;;;;;;;74.10;9.18;;;7.20;99.90;;;;;;5005564;28;20194;-87
2023/04/02 06:56:36;;;;;;;74.13;10.40;;;7.10;99.90;;;;;;5018873;28;20220;-87
2023/04/02 06:59:06;;;;;;;75.30;11.40;;;7.10;99.90;;;;;;5019455;28;20261;-87
2023/04/02 07:01:40;;;;;;;72.32;10.27;;;7.00;99.90;;;;;;5018716;28;20577;-87
2023/04/02 07:04:07;;;;;;;75.32;13.07;;;7.00;99.90;;;;;;5019589;28;20216;-87
2023/04/02 07:06:33;;;;;;;72.00;10.27;;;6.80;99.90;;;;;;5019500;28;20538;-87
2023/04/02 07:08:59;;;;;;;73.73;13.03;;;6.90;99.90;;;;;;5021004;28;20162;-87
2023/04/02 07:11:25;;;;;;;72.60;10.60;;;6.80;99.90;;;;;;5019977;28;20191;-87
2023/04/02 07:13:51;;;;;;;73.20;11.65;;;6.80;99.90;;;;;;5019982;28;20432;-87
2023/04/02 07:16:20;;;;;;;74.53;11.67;;;6.80;99.90;;;;;;5019822;28;20259;-86
2023/04/02 07:18:47;;;;;;;73.22;10.35;;;6.80;99.90;;;;;;5021394;28;20154;-86
2023/04/02 07:21:13;;;;;;;75.25;9.77;;;6.90;99.90;;;;;;5003464;28;20174;-86
2023/04/02 07:23:39;;;;;;;73.80;9.80;;;7.00;99.90;;;;;;5020021;28;20245;-87
2023/04/02 07:26:06;;;;;;;72.20;10.43;;;7.00;99.90;;;;;;5020045;28;20389;-86
2023/04/02 07:28:32;;;;;;;73.90;10.55;;;7.00;99.90;;;;;;5020403;28;20150;-87
2023/04/02 07:30:58;;;;;;;72.30;9.55;;;6.80;99.90;;;;;;5020144;28;20158;-87
2023/04/02 07:33:27;;;;;;;71.00;9.93;;;6.80;99.90;;;;;;5019126;28;20201;-86
2023/04/02 07:35:55;;;;;;;74.32;10.10;;;6.80;99.90;;;;;;5020650;28;20169;-87
2023/04/02 07:38:21;;;;;;;72.78;9.85;;;6.80;99.90;;;;;;5019432;28;20181;-86
2023/04/02 07:40:47;;;;;;;73.00;11.00;;;6.90;99.90;;;;;;5020368;28;20237;-86
2023/04/02 07:43:12;;;;;;;72.00;10.03;;;6.80;99.90;;;;;;5020022;28;20497;-86
2023/04/02 07:45:38;;;;;;;74.90;10.60;;;6.90;99.90;;;;;;5020238;28;20520;-86
2023/04/02 07:48:09;;;;;;;71.83;9.23;;;6.90;99.90;;;;;;5019604;28;20166;-86
2023/04/02 07:50:35;;;;;;;75.43;10.48;;;7.00;99.90;;;;;;5018668;28;20194;-86
2023/04/02 07:53:02;;;;;;;71.53;9.90;;;7.00;99.90;;;;;;5020065;28;20182;-86
2023/04/02 07:55:30;;;;;;;71.90;11.15;;;6.90;99.90;;;;;;5018036;28;20423;-87
2023/04/02 07:57:58;;;;;;;74.35;10.20;;;6.80;99.90;;;;;;5019058;28;20174;-87
2023/04/02 08:00:25;;;;;;;76.55;10.18;;;6.80;99.90;;;;;;5017575;28;20174;-87
2023/04/02 08:02:51;;;;;;;71.80;9.65;;;6.80;99.90;;;;;;5018366;28;20208;-86
2023/04/02 08:05:17;;;;;;;74.15;9.35;;;6.80;99.90;;;;;;5019405;28;20192;-87
2023/04/02 08:07:51;;;;;;;76.05;11.70;;;6.80;99.90;;;;;;5019570;28;20199;-87
2023/04/02 08:10:18;;;;;;;73.35;10.13;;;6.80;99.90;;;;;;5019417;28;20162;-87
2023/04/02 08:12:44;;;;;;;73.25;10.27;;;6.80;99.90;;;;;;5017922;28;20196;-87
2023/04/02 08:15:14;;;;;;;73.30;10.25;;;6.80;99.90;;;;;;5018867;28;20170;-87
2023/04/02 08:17:39;;;;;;;73.38;10.85;;;6.70;99.90;;;;;;5017521;28;20634;-87
2023/04/02 08:20:06;;;;;;;71.60;10.10;;;6.70;99.90;;;;;;5018457;28;20173;-87
2023/04/02 08:22:32;;;;;;;73.13;11.25;;;6.80;99.90;;;;;;5017468;28;20173;-87
2023/04/02 08:24:58;;;;;;;72.53;10.25;;;6.80;99.90;;;;;;5019414;28;20190;-87
2023/04/02 08:27:25;;;;;;;75.97;12.33;;;6.80;99.90;;;;;;5019239;28;20204;-87
2023/04/02 08:29:51;;;;;;;73.00;10.52;;;6.80;99.90;;;;;;5018011;28;20226;-87
2023/04/02 08:32:17;;;;;;;72.20;10.48;;;6.70;99.90;;;;;;5017991;28;20219;-87
2023/04/02 08:34:43;;;;;;;73.35;10.70;;;6.70;99.90;;;;;;5017462;28;20557;-87
2023/04/02 08:37:11;;;;;;;73.30;9.93;;;6.70;99.90;;;;;;5019284;28;20256;-86
2023/04/02 08:39:37;;;;;;;74.43;12.43;;;6.80;99.90;;;;;;5018640;28;20196;-86
2023/04/02 08:42:12;;;;;;;73.37;10.30;;;6.90;99.90;;;;;;5018435;28;20178;-86
2023/04/02 08:44:50;;;;;;;78.70;10.55;;;6.80;99.90;;;;;;5018992;28;20475;-86
2023/04/02 08:47:19;;;;;;;74.40;10.52;;;6.80;99.90;;;;;;5018675;28;20197;-85
2023/04/02 08:50:30;;;;;;;79.57;12.90;;;6.90;99.90;;;;;;5020250;28;20162;-86
2023/04/02 08:52:57;;;;;;;73.55;11.13;;;6.80;99.90;;;;;;4959783;28;20559;-86
2023/04/02 08:55:46;;;;;;;72.90;10.88;;;6.90;99.90;;;;;;5011513;28;20194;-86
2023/04/02 08:58:32;;;;;;;79.35;11.35;;;6.80;99.90;;;;;;5018053;28;20243;-86
2023/04/02 09:01:01;;;;;;;75.00;11.60;;;6.80;99.90;;;;;;5019481;28;20165;-86
2023/04/02 09:03:35;;;;;;;72.72;11.70;;;6.90;99.90;;;;;;5018639;28;20212;-86
2023/04/02 09:06:02;;;;;;;73.95;11.55;;;6.90;99.90;;;;;;5017940;28;20316;-86
2023/04/02 09:08:31;;;;;;;74.65;11.45;;;6.90;99.90;;;;;;5019667;28;20237;-86
2023/04/02 09:11:07;;;;;;;78.03;13.25;;;6.90;99.90;;;;;;5019790;28;20177;-85
2023/04/02 09:13:39;;;;;;;76.93;11.82;;;6.90;99.90;;;;;;5019624;28;20673;-86
2023/04/02 09:16:21;;;;;;;77.95;11.25;;;6.90;99.90;;;;;;5020397;28;20169;-85
2023/04/02 09:18:50;;;;;;;73.22;10.45;;;6.90;99.90;;;;;;5022771;28;20153;-85
2023/04/02 09:21:18;;;;;;;74.25;11.30;;;7.00;99.90;;;;;;5022510;28;20178;-85
2023/04/02 09:23:44;;;;;;;74.75;10.93;;;7.10;99.90;;;;;;5022441;28;20193;-86
2023/04/02 09:26:21;;;;;;;73.07;9.30;;;7.10;99.90;;;;;;5022929;28;20177;-85
2023/04/02 09:28:50;;;;;;;73.47;9.13;;;7.10;99.90;;;;;;5021943;28;20165;-85
2023/04/02 09:31:34;;;;;;;72.20;10.10;;;7.10;99.90;;;;;;5023220;28;20566;-85
2023/04/02 09:34:00;;;;;;;73.95;9.90;;;7.00;99.90;;;;;;5021736;28;20205;-85
2023/04/02 09:36:37;;;;;;;71.67;10.27;;;6.90;99.90;;;;;;5022927;28;20763;-85
2023/04/02 09:39:05;;;;;;;73.18;10.90;;;6.90;99.90;;;;;;5023705;28;20178;-85
2023/04/02 09:41:33;;;;;;;73.53;10.88;;;6.90;99.90;;;;;;5022972;28;20177;-85
2023/04/02 09:44:24;;;;;;;74.20;10.40;;;7.00;99.90;;;;;;5021604;28;20197;-85
2023/04/02 09:46:59;;;;;;;73.30;9.60;;;7.10;99.90;;;;;;5022162;28;20178;-85
2023/04/02 09:49:28;;;;;;;73.60;10.05;;;7.10;99.90;;;;;;5021789;28;20157;-85
2023/04/02 09:52:18;;;;;;;73.30;9.30;;;7.10;99.90;;;;;;5023440;28;20248;-85
2023/04/02 09:54:44;;;;;;;74.43;10.25;;;7.10;99.90;;;;;;5022405;28;20158;-85
2023/04/02 09:57:25;;;;;;;77.13;9.88;;;7.10;99.90;;;;;;5022099;28;20178;-85
2023/04/02 10:00:11;;;;;;;70.40;8.45;;;7.20;99.90;;;;;;5005985;28;20178;-85
2023/04/02 10:02:37;;;;;;;70.70;8.60;;;7.30;99.90;;;;;;5023997;28;20186;-85
2023/04/02 10:05:14;;;;;;;69.40;7.80;;;7.20;99.90;;;;;;5022478;28;20684;-85
2023/04/02 10:07:47;;;;;;;75.97;9.32;;;7.20;99.90;;;;;;5023788;28;20146;-84
2023/04/02 10:10:30;;;;;;;72.57;8.55;;;7.20;99.90;;;;;;5022135;28;20204;-85
2023/04/02 10:13:01;;;;;;;69.10;8.18;;;7.30;99.90;;;;;;5022316;28;20184;-85
2023/04/02 10:15:43;;;;;;;73.00;9.27;;;7.40;99.90;;;;;;5022859;28;20169;-86
2023/04/02 10:18:39;;;;;;;72.15;8.10;;;7.40;99.90;;;;;;5022693;28;20155;-85
2023/04/02 10:21:06;;;;;;;72.60;8.73;;;7.40;99.90;;;;;;5021744;28;20197;-85
2023/04/02 10:23:32;;;;;;;71.57;9.18;;;7.50;99.90;;;;;;5023081;28;20225;-85
2023/04/02 10:26:07;;;;;;;72.60;9.70;;;7.40;99.90;;;;;;5022722;28;20217;-85
2023/04/02 10:28:42;;;;;;;70.93;8.75;;;7.40;99.90;;;;;;5022565;28;20157;-85
2023/04/02 10:31:24;;;;;;;74.03;9.40;;;7.50;99.90;;;;;;5021257;28;20162;-85
2023/04/02 10:33:54;;;;;;;70.88;8.88;;;7.50;99.90;;;;;;5022326;28;20181;-85
2023/04/02 10:36:35;;;;;;;72.60;9.13;;;7.50;99.90;;;;;;5022841;28;20155;-85
2023/04/02 10:39:08;;;;;;;73.45;9.52;;;7.60;99.90;;;;;;5021897;28;20166;-85
2023/04/02 10:41:50;;;;;;;70.82;8.77;;;7.60;99.90;;;;;;5022944;28;20173;-85
2023/04/02 10:44:29;;;;;;;71.15;8.35;;;7.70;99.90;;;;;;5022364;28;20314;-85
2023/04/02 10:47:26;;;;;;;73.70;9.73;;;7.80;99.90;;;;;;5021875;28;20168;-85
2023/04/02 10:50:13;;;;;;;71.70;9.25;;;7.70;99.90;;;;;;5021074;28;20162;-85
2023/04/02 10:52:48;;;;;;;75.05;10.00;;;7.80;99.90;;;;;;5022003;28;20188;-85
2023/04/02 10:55:39;;;;;;;70.32;8.75;;;8.10;99.90;;;;;;5021810;28;20173;-84
2023/04/02 10:58:17;;;;;;;70.75;8.05;;;8.20;99.90;;;;;;5020549;28;20186;-85
2023/04/02 11:00:45;;;;;;;71.53;7.95;;;8.20;99.90;;;;;;5021114;28;20158;-85
2023/04/02 11:03:38;;;;;;;74.68;9.75;;;8.10;99.90;;;;;;5020166;28;20209;-85
2023/04/02 11:06:16;;;;;;;72.45;8.50;;;8.10;99.90;;;;;;5022072;28;20668;-85
2023/04/02 11:08:45;;;;;;;70.22;8.30;;;8.20;99.90;;;;;;5022198;28;20162;-85
2023/04/02 11:11:18;;;;;;;69.82;8.95;;;8.20;99.90;;;;;;5020378;28;20170;-85
2023/04/02 11:13:59;;;;;;;71.30;8.25;;;8.20;99.90;;;;;;5021607;28;20684;-85
2023/04/02 11:16:26;;;;;;;70.20;9.00;;;8.20;99.90;;;;;;5022050;28;20154;-86
2023/04/02 11:19:13;;;;;;;70.28;9.10;;;8.30;99.90;;;;;;5021438;28;20162;-85
2023/04/02 11:22:15;;;;;;;70.53;9.20;;;8.40;99.90;;;;;;5019645;28;20168;-85
2023/04/02 11:24:49;;;;;;;69.93;8.50;;;8.40;99.90;;;;;;5021741;28;20204;-86
2023/04/02 11:27:32;;;;;;;70.97;8.70;;;8.50;99.90;;;;;;5021629;28;20164;-86
2023/04/02 11:30:23;;;;;;;69.28;8.20;;;8.50;99.90;;;;;;5021004;28;20196;-86
2023/04/02 11:32:49;;;;;;;67.65;8.13;;;8.50;99.90;;;;;;5021006;28;20189;-86
2023/04/02 11:35:30;;;;;;;70.05;9.88;;;8.30;99.90;;;;;;5020261;28;20525;-85
2023/04/02 11:38:22;;;;;;;69.22;8.30;;;8.30;99.90;;;;;;5021306;28;20150;-86
2023/04/02 11:40:57;;;;;;;69.20;8.60;;;8.30;99.90;;;;;;4983660;28;20185;-86
2023/04/02 11:43:32;;;;;;;69.30;8.90;;;8.50;99.90;;;;;;5021180;28;20185;-86
2023/04/02 11:46:03;;;;;;;72.68;9.10;;;8.70;99.90;;;;;;5021263;28;20665;-86
2023/04/02 11:48:32;;;;;;;71.97;8.80;;;8.80;99.90;;;;;;5021162;28;20161;-86
2023/04/02 11:51:03;;;;;;;69.40;8.30;;;8.80;99.90;;;;;;5021049;28;20162;-86
2023/04/02 11:53:33;;;;;;;67.25;7.60;;;8.90;99.90;;;;;;5020939;28;20181;-86
2023/04/02 11:58:34;;;;;;;68.65;7.95;;;8.90;99.90;;;;;;5093151;22;20599;-84
2023/04/02 12:01:38;;;;;;;72.17;10.10;;;8.80;99.90;;;;;;5019033;28;20170;-83
2023/04/02 12:04:10;;;;;;;72.32;9.45;;;8.70;99.90;;;;;;5023434;28;20209;-84
2023/04/02 12:06:45;;;;;;;72.00;9.13;;;8.70;99.90;;;;;;5023400;28;20204;-83
2023/04/02 12:09:26;;;;;;;73.20;9.57;;;8.70;99.90;;;;;;5024206;28;20161;-83
2023/04/02 12:11:55;;;;;;;70.68;9.15;;;8.70;99.90;;;;;;5023407;28;20193;-83
2023/04/02 12:14:41;;;;;;;70.38;7.50;;;8.90;92.60;;;;;;5024196;28;20244;-83
2023/04/02 12:17:38;;;;;;;70.47;8.50;;;9.00;64.30;;;;;;5024466;28;20226;-83
2023/04/02 12:20:08;;;;;;;68.40;7.30;;;9.10;50.50;;;;;;5022798;28;20161;-83
2023/04/02 12:22:38;;;;;;;70.63;9.23;;;9.20;56.20;;;;;;5025261;28;20721;-83
2023/04/02 12:25:32;;;;;;;68.88;7.90;;;9.20;46.10;;;;;;5024954;28;20193;-83
2023/04/02 12:28:18;;;;;;;70.38;7.95;;;9.20;42.20;;;;;;5024656;28;20185;-83
2023/04/02 12:30:46;;;;;;;67.90;7.65;;;9.30;34.90;;;;;;5023882;28;20174;-83
2023/04/02 12:33:21;;;;;;;72.07;7.80;;;9.20;38.20;;;;;;5020035;28;20182;-83
2023/04/02 12:35:49;;;;;;;70.68;8.10;;;9.20;40.30;;;;;;5024021;28;20162;-84
2023/04/02 12:38:29;;;;;;;68.03;8.27;;;9.20;41.30;;;;;;5022507;28;20174;-83
2023/04/02 12:40:55;;;;;;;67.18;7.65;;;9.10;44.80;;;;;;5023083;28;20150;-83
2023/04/02 12:43:30;;;;;;;71.63;8.10;;;9.10;41.00;;;;;;5021525;28;20209;-83
2023/04/02 12:46:03;;;;;;;69.80;7.45;;;9.10;34.50;;;;;;5022531;28;20193;-83
2023/04/02 12:48:30;;;;;;;70.00;7.75;;;9.00;38.50;;;;;;5018885;28;20166;-83
2023/04/02 12:50:56;;;;;;;69.82;8.77;;;8.80;40.80;;;;;;5024524;28;20154;-83
2023/04/02 12:53:33;;;;;;;69.38;7.90;;;8.80;45.80;;;;;;5025201;28;20186;-83
2023/04/02 12:55:59;;;;;;;73.45;8.77;;;8.70;51.00;;;;;;5026636;28;20644;-83
2023/04/02 12:58:36;;;;;;;70.72;9.07;;;8.80;50.40;;;;;;5026928;28;20194;-83
2023/04/02 13:01:30;;;;;;;70.00;8.38;;;8.70;48.00;;;;;;5027134;28;20142;-83
2023/04/02 13:04:00;;;;;;;71.88;8.57;;;8.80;48.30;;;;;;5021021;28;20280;-83
2023/04/02 13:06:26;;;;;;;69.70;8.77;;;8.80;52.30;;;;;;5022638;28;20169;-83
2023/04/02 13:08:53;;;;;;;69.00;8.87;;;8.60;50.70;;;;;;5027657;28;20649;-83
2023/04/02 13:11:21;;;;;;;70.88;8.88;;;8.60;46.80;;;;;;5026569;28;20408;-83
2023/04/02 13:13:47;;;;;;;70.65;9.00;;;8.80;52.70;;;;;;5027258;28;20182;-83
2023/04/02 13:16:16;;;;;;;68.38;7.60;;;8.70;49.70;;;;;;5026577;28;20517;-83
2023/04/02 13:18:44;;;;;;;69.28;7.90;;;8.60;42.50;;;;;;5026519;28;20173;-83
2023/04/02 13:21:17;;;;;;;75.40;8.90;;;8.60;46.60;;;;;;5027757;28;20173;-83
2023/04/02 13:23:44;;;;;;;71.18;7.90;;;8.60;51.00;;;;;;5026125;28;20185;-83
2023/04/02 13:26:10;;;;;;;68.60;8.30;;;8.50;52.20;;;;;;5026015;28;20202;-83
2023/04/02 13:28:36;;;;;;;69.50;7.77;;;8.60;47.70;;;;;;5026112;28;20256;-83
2023/04/02 13:31:02;;;;;;;71.45;8.55;;;8.50;45.90;;;;;;5026059;28;20543;-83
2023/04/02 13:33:27;;;;;;;70.20;8.33;;;8.50;47.20;;;;;;5026136;28;20178;-83
2023/04/02 13:35:53;;;;;;;68.40;7.23;;;8.50;44.70;;;;;;5026362;28;20228;-83
2023/04/02 13:38:19;;;;;;;67.83;7.90;;;8.50;44.30;;;;;;5025982;28;20253;-83
2023/04/02 13:40:45;;;;;;;69.10;8.70;;;8.60;48.40;;;;;;5024912;28;20174;-83
2023/04/02 13:43:19;;;;;;;69.10;8.10;;;8.50;43.60;;;;;;5023369;28;20428;-83
2023/04/02 13:45:51;;;;;;;68.90;7.07;;;8.50;40.50;;;;;;5024564;28;20550;-83
2023/04/02 13:48:17;;;;;;;67.78;8.00;;;8.50;49.50;;;;;;5023807;28;20166;-83
2023/04/02 13:50:43;;;;;;;68.50;7.43;;;8.50;44.20;;;;;;5024008;28;20169;-83
2023/04/02 13:53:24;;;;;;;68.13;7.50;;;8.50;38.70;;;;;;5023668;28;20186;-83
2023/04/02 13:55:51;;;;;;;69.13;7.38;;;8.60;44.70;;;;;;5023745;28;20161;-83
2023/04/02 13:58:17;;;;;;;71.40;7.55;;;8.70;40.20;;;;;;5022586;28;20231;-83
2023/04/02 14:00:44;;;;;;;67.20;7.82;;;8.80;40.20;;;;;;5022241;28;20223;-83
2023/04/02 14:03:20;;;;;;;67.50;7.03;;;8.80;34.80;;;;;;5021706;28;20616;-83
2023/04/02 14:06:11;;;;;;;67.45;7.30;;;8.70;31.50;;;;;;5023735;28;20659;-83
2023/04/02 14:08:56;;;;;;;69.10;7.20;;;8.80;35.90;;;;;;5026388;28;20143;-83
2023/04/02 14:11:28;;;;;;;66.97;6.97;;;8.80;30.70;;;;;;5024636;28;20159;-83
2023/04/02 14:14:15;;;;;;;70.78;7.80;;;8.90;34.50;;;;;;5020771;28;20182;-83
2023/04/02 14:16:47;;;;;;;67.95;6.65;;;8.80;30.60;;;;;;5022344;28;20165;-83
2023/04/02 14:19:36;;;;;;;68.72;6.80;;;8.70;25.20;;;;;;5022718;28;20653;-83
2023/04/02 14:22:13;;;;;;;67.72;7.00;;;8.70;28.90;;;;;;4977721;28;20196;-83
2023/04/02 14:24:48;;;;;;;70.18;8.35;;;8.60;31.30;;;;;;5023739;28;20603;-83
2023/04/02 14:27:39;;;;;;;68.13;7.45;;;8.70;34.50;;;;;;5022363;28;20156;-83
2023/04/02 14:30:17;;;;;;;71.35;7.45;;;8.80;29.40;;;;;;5024237;28;20146;-83
2023/04/02 14:33:10;;;;;;;68.15;7.05;;;8.80;28.40;;;;;;5023888;28;20192;-83
2023/04/02 14:35:45;;;;;;;66.18;6.18;;;8.70;27.00;;;;;;5023048;28;20185;-83